createdAt,value
2023-01-21T00:01:10.630Z,94406.50
2023-01-21T00:03:38.513Z,94400.41
2023-01-21T00:06:06.364Z,94396.31
2023-01-21T00:08:33.609Z,94415.38
2023-01-21T00:11:08.906Z,94379.94
2023-01-21T00:13:37.379Z,94411.91
2023-01-21T00:16:05.390Z,94418.00
2023-01-21T00:18:32.935Z,94405.97
2023-01-21T00:21:00.328Z,94414.91
2023-01-21T00:23:27.758Z,94412.44
2023-01-21T00:26:04.319Z,94404.00
2023-01-21T00:28:33.492Z,94403.66
2023-01-21T00:31:03.276Z,94401.41
2023-01-21T00:33:31.323Z,94394.81
2023-01-21T00:36:02.045Z,94418.09
2023-01-21T00:38:30.478Z,94411.56
2023-01-21T00:41:04.767Z,94300.09
2023-01-21T00:43:32.461Z,94379.78
2023-01-21T00:45:59.867Z,94390.41
2023-01-21T00:48:28.537Z,94386.19
2023-01-21T00:50:59.092Z,94378.06
2023-01-21T00:53:27.321Z,94399.25
2023-01-21T00:55:54.336Z,94383.44
2023-01-21T00:58:21.842Z,94379.00
2023-01-21T01:00:48.900Z,94397.63
2023-01-21T01:03:15.728Z,94410.41
2023-01-21T01:05:42.700Z,94389.56
2023-01-21T01:08:09.594Z,94406.88
2023-01-21T01:10:37.694Z,94390.09
2023-01-21T01:13:04.795Z,94402.81
2023-01-21T01:15:31.937Z,94393.97
2023-01-21T01:17:58.834Z,94397.13
2023-01-21T01:20:26.020Z,94404.84
2023-01-21T01:22:53.090Z,94403.81
2023-01-21T01:25:19.945Z,94389.22
2023-01-21T01:27:46.845Z,94385.34
2023-01-21T01:30:13.821Z,94386.00
2023-01-21T01:32:40.810Z,94370.03
2023-01-21T01:35:08.152Z,94376.72
2023-01-21T01:37:35.075Z,94375.66
2023-01-21T01:40:02.286Z,94379.25
2023-01-21T01:42:29.555Z,94369.81
2023-01-21T01:45:16.741Z,94369.91
2023-01-21T01:48:01.091Z,94361.56
2023-01-21T01:50:32.890Z,94373.69
2023-01-21T01:53:02.281Z,94360.38
2023-01-21T01:55:33.914Z,94352.19
2023-01-21T01:58:02.463Z,94341.13
2023-01-21T02:00:29.984Z,94341.94
2023-01-21T02:03:15.808Z,94331.38
2023-01-21T02:05:44.246Z,94266.25
2023-01-21T02:08:11.788Z,94335.78
2023-01-21T02:10:38.805Z,94344.28
2023-01-21T02:13:06.013Z,94347.81
2023-01-21T02:15:39.314Z,94317.31
2023-01-21T02:18:33.937Z,94309.31
2023-01-21T02:21:31.748Z,94299.88
2023-01-21T02:25:04.057Z,94333.84
2023-01-21T02:27:43.275Z,94308.72
2023-01-21T02:30:10.258Z,94287.25
2023-01-21T02:32:40.261Z,94296.34
2023-01-21T02:35:42.972Z,94296.19
2023-01-21T02:38:29.059Z,94295.69
2023-01-21T02:41:20.084Z,94300.16
2023-01-21T02:44:01.501Z,94270.34
2023-01-21T02:46:45.624Z,94290.34
2023-01-21T02:49:21.628Z,94311.72
2023-01-21T02:51:49.703Z,94292.63
2023-01-21T02:54:41.500Z,94296.06
2023-01-21T02:57:15.902Z,94300.75
2023-01-21T02:59:48.493Z,94279.91
2023-01-21T03:02:26.010Z,94273.56
2023-01-21T03:05:28.084Z,94266.72
2023-01-21T03:08:19.995Z,94270.34
2023-01-21T03:11:04.277Z,94272.16
2023-01-21T03:14:00.511Z,94266.72
2023-01-21T03:16:52.089Z,94270.41
2023-01-21T03:19:21.835Z,94257.66
2023-01-21T03:21:50.645Z,94250.78
2023-01-21T03:24:19.308Z,94261.59
2023-01-21T03:26:50.742Z,94256.28
2023-01-21T03:29:26.146Z,94242.41
2023-01-21T03:32:06.527Z,94233.59
2023-01-21T03:34:41.571Z,94240.00
2023-01-21T03:37:37.788Z,94209.16
2023-01-21T03:40:04.977Z,94239.34
2023-01-21T03:42:32.207Z,94200.41
2023-01-21T03:44:59.751Z,94223.28
2023-01-21T03:47:32.138Z,94221.56
2023-01-21T03:50:06.157Z,94219.22
2023-01-21T03:52:33.833Z,94225.31
2023-01-21T03:55:00.815Z,94222.28
2023-01-21T03:57:27.956Z,94222.97
2023-01-21T03:59:56.396Z,94226.03
2023-01-21T04:02:23.624Z,94208.03
2023-01-21T04:04:53.122Z,94222.63
2023-01-21T04:07:20.191Z,94226.25
2023-01-21T04:09:47.195Z,94232.16
2023-01-21T04:12:14.275Z,94229.94
2023-01-21T04:14:41.360Z,94222.59
2023-01-21T04:17:08.652Z,94199.56
2023-01-21T04:19:35.794Z,94202.13
2023-01-21T04:22:02.715Z,94190.50
2023-01-21T04:24:30.053Z,94179.13
2023-01-21T04:26:57.034Z,94164.25
2023-01-21T04:29:24.125Z,94189.97
2023-01-21T04:31:51.236Z,94200.94
2023-01-21T04:34:18.642Z,94217.84
2023-01-21T04:36:46.781Z,94210.78
2023-01-21T04:39:13.787Z,94200.59
2023-01-21T04:41:41.013Z,94225.00
2023-01-21T04:44:08.080Z,94223.53
2023-01-21T04:46:35.033Z,94204.03
2023-01-21T04:49:01.967Z,94236.69
2023-01-21T04:51:29.069Z,94230.91
2023-01-21T04:53:56.081Z,94203.06
2023-01-21T04:56:23.212Z,94247.56
2023-01-21T04:58:50.270Z,94239.25
2023-01-21T05:01:17.407Z,94243.66
2023-01-21T05:03:44.671Z,94242.56
2023-01-21T05:06:11.967Z,94237.38
2023-01-21T05:08:39.075Z,94247.13
2023-01-21T05:11:09.559Z,94260.25
2023-01-21T05:13:36.570Z,94260.88
2023-01-21T05:16:10.001Z,94283.69
2023-01-21T05:18:38.085Z,94281.59
2023-01-21T05:21:05.787Z,94259.81
2023-01-21T05:23:33.421Z,94286.63
2023-01-21T05:26:00.394Z,94270.91
2023-01-21T05:28:27.671Z,94266.47
2023-01-21T05:30:54.680Z,94272.47
2023-01-21T05:33:26.405Z,94272.47
2023-01-21T05:35:53.497Z,94277.94
2023-01-21T05:38:20.539Z,94290.56
2023-01-21T05:40:47.540Z,94287.94
2023-01-21T05:43:14.507Z,94298.56
2023-01-21T05:45:41.667Z,94292.31
2023-01-21T05:48:08.666Z,94293.81
2023-01-21T05:50:37.786Z,94295.69
2023-01-21T05:53:04.962Z,94317.09
2023-01-21T05:55:31.918Z,94308.94
2023-01-21T05:57:58.879Z,94290.47
2023-01-21T06:00:26.039Z,94298.91
2023-01-21T06:02:53.422Z,94306.94
2023-01-21T06:05:20.531Z,94270.97
2023-01-21T06:07:47.651Z,94286.22
2023-01-21T06:10:15.249Z,94298.72
2023-01-21T06:12:42.469Z,94284.53
2023-01-21T06:15:10.116Z,94269.22
2023-01-21T06:17:40.655Z,94294.00
2023-01-21T06:20:09.016Z,94309.38
2023-01-21T06:22:36.193Z,94297.28
2023-01-21T06:25:03.127Z,94308.41
2023-01-21T06:27:30.455Z,94310.25
2023-01-21T06:29:57.484Z,94289.81
2023-01-21T06:32:37.066Z,94297.28
2023-01-21T06:35:08.997Z,94292.44
2023-01-21T06:37:36.108Z,94319.09
2023-01-21T06:40:03.766Z,94307.75
2023-01-21T06:42:31.069Z,94336.28
2023-01-21T06:44:58.894Z,94305.34
2023-01-21T06:47:26.185Z,94319.00
2023-01-21T06:49:53.294Z,94299.41
2023-01-21T06:52:20.468Z,94303.78
2023-01-21T06:54:48.378Z,94300.66
2023-01-21T06:57:15.535Z,94337.13
2023-01-21T06:59:42.464Z,94324.66
2023-01-21T07:02:12.627Z,94305.72
2023-01-21T07:04:39.746Z,94347.69
2023-01-21T07:07:06.696Z,94346.56
2023-01-21T07:09:33.905Z,94309.22
2023-01-21T07:12:00.834Z,94346.03
2023-01-21T07:14:27.761Z,94343.19
2023-01-21T07:16:55.102Z,94342.78
2023-01-21T07:19:22.458Z,94342.59
2023-01-21T07:21:49.697Z,94351.72
2023-01-21T07:24:16.860Z,94340.16
2023-01-21T07:26:44.929Z,94332.63
2023-01-21T07:29:12.268Z,94340.22
2023-01-21T07:31:39.443Z,94346.53
2023-01-21T07:34:06.698Z,94341.44
2023-01-21T07:36:33.778Z,94328.84
2023-01-21T07:39:00.835Z,94318.94
2023-01-21T07:41:28.086Z,94325.84
2023-01-21T07:43:54.992Z,94311.03
2023-01-21T07:46:23.604Z,94303.63
2023-01-21T07:48:51.909Z,94318.72
2023-01-21T07:51:20.482Z,94330.53
2023-01-21T07:53:47.978Z,94338.19
2023-01-21T07:56:16.322Z,94341.09
2023-01-21T07:58:43.317Z,94306.91
2023-01-21T08:01:10.563Z,94314.69
2023-01-21T08:03:38.724Z,94323.56
2023-01-21T08:06:06.997Z,94313.41
2023-01-21T08:08:34.594Z,94315.03
2023-01-21T08:11:01.490Z,94298.88
2023-01-21T08:13:28.488Z,94328.78
2023-01-21T08:15:56.729Z,94312.47
2023-01-21T08:18:25.011Z,94324.47
2023-01-21T08:20:57.052Z,94337.25
2023-01-21T08:23:25.252Z,94328.81
2023-01-21T08:25:52.504Z,94334.38
2023-01-21T08:28:22.384Z,94342.41
2023-01-21T08:30:49.816Z,94327.91
2023-01-21T08:33:16.777Z,94326.41
2023-01-21T08:35:44.121Z,94347.50
2023-01-21T08:38:11.120Z,94350.84
2023-01-21T08:40:38.743Z,94322.38
2023-01-21T08:43:09.172Z,94334.69
2023-01-21T08:45:36.579Z,94345.94
2023-01-21T08:48:04.022Z,94348.25
2023-01-21T08:50:30.984Z,94326.09
2023-01-21T08:52:58.316Z,94324.50
2023-01-21T08:55:26.857Z,94362.66
2023-01-21T08:57:55.833Z,94357.09
2023-01-21T09:00:23.958Z,94355.13
2023-01-21T09:02:51.925Z,94358.69
2023-01-21T09:05:19.919Z,94360.25
2023-01-21T09:07:47.117Z,94358.63
2023-01-21T09:10:34.469Z,94340.63
2023-01-21T09:13:09.742Z,94337.34
2023-01-21T09:15:41.575Z,94332.66
2023-01-21T09:18:09.321Z,94343.53
2023-01-21T09:20:38.511Z,94316.44
2023-01-21T09:23:25.003Z,94321.38
2023-01-21T09:26:05.705Z,94328.44
2023-01-21T09:28:35.006Z,94316.25
2023-01-21T09:31:05.655Z,94323.25
2023-01-21T09:33:37.597Z,94311.50
2023-01-21T09:36:07.468Z,94321.31
2023-01-21T09:38:35.058Z,94293.09
2023-01-21T09:41:50.295Z,94256.09
2023-01-21T09:44:44.961Z,94303.75
2023-01-21T09:47:28.418Z,94320.09
2023-01-21T09:50:05.584Z,94297.16
2023-01-21T09:52:38.847Z,94314.53
2023-01-21T09:55:14.037Z,94323.94
2023-01-21T09:57:56.298Z,94311.50
2023-01-21T10:00:42.098Z,94301.75
2023-01-21T10:03:16.349Z,94304.97
2023-01-21T10:05:43.182Z,94303.16
2023-01-21T10:08:32.105Z,94293.66
2023-01-21T10:11:19.063Z,94275.75
2023-01-21T10:14:04.132Z,94303.00
2023-01-21T10:17:18.631Z,94295.03
2023-01-21T10:19:53.275Z,94276.34
2023-01-21T10:22:28.719Z,94283.50
2023-01-21T10:25:00.276Z,94278.56
2023-01-21T10:27:32.479Z,94281.16
2023-01-21T10:30:10.791Z,94283.34
2023-01-21T10:32:41.280Z,94281.56
2023-01-21T10:35:18.785Z,94282.13
2023-01-21T10:38:03.893Z,94283.47
2023-01-21T10:40:44.713Z,94281.63
2023-01-21T10:43:36.222Z,94275.22
2023-01-21T10:46:17.026Z,94267.25
2023-01-21T10:49:20.983Z,94260.84
2023-01-21T10:52:06.256Z,94255.63
2023-01-21T10:54:56.387Z,94246.38
2023-01-21T10:57:51.820Z,94258.69
2023-01-21T11:00:29.748Z,94257.94
2023-01-21T11:03:11.704Z,94241.72
2023-01-21T11:05:39.300Z,94226.13
2023-01-21T11:08:07.162Z,94220.09
2023-01-21T11:10:34.173Z,94226.78
2023-01-21T11:13:01.338Z,94211.84
2023-01-21T11:15:33.640Z,94231.66
2023-01-21T11:18:00.823Z,94229.00
2023-01-21T11:20:43.344Z,94229.88
2023-01-21T11:23:28.658Z,94248.56
2023-01-21T11:26:10.261Z,94245.75
2023-01-21T11:28:37.495Z,94214.34
2023-01-21T11:31:20.168Z,94235.00
2023-01-21T11:33:48.384Z,94244.69
2023-01-21T11:36:17.597Z,94231.97
2023-01-21T11:38:45.669Z,94227.47
2023-01-21T11:41:12.826Z,94232.00
2023-01-21T11:43:46.544Z,94232.53
2023-01-21T11:46:40.990Z,94226.69
2023-01-21T11:49:08.348Z,94226.69
2023-01-21T11:51:37.036Z,94205.88
2023-01-21T11:54:21.002Z,94228.06
2023-01-21T11:56:59.940Z,94213.13
2023-01-21T11:59:34.433Z,94222.22
2023-01-21T12:02:16.599Z,94239.06
2023-01-21T12:04:47.955Z,94241.47
2023-01-21T12:07:21.915Z,94220.09
2023-01-21T12:10:01.288Z,94235.59
2023-01-21T12:12:45.490Z,94242.28
2023-01-21T12:15:34.863Z,94240.41
2023-01-21T12:18:08.166Z,94229.19
2023-01-21T12:20:57.874Z,94233.72
2023-01-21T12:23:46.510Z,94222.25
2023-01-21T12:26:32.164Z,94216.66
2023-01-21T12:29:28.616Z,94209.97
2023-01-21T12:32:13.962Z,94208.63
2023-01-21T12:35:09.282Z,94214.22
2023-01-21T12:37:56.219Z,94216.09
2023-01-21T12:40:55.365Z,94223.31
2023-01-21T12:43:41.937Z,94223.03
2023-01-21T12:46:20.746Z,94245.50
2023-01-21T12:49:07.694Z,94247.63
2023-01-21T12:51:40.998Z,94249.47
2023-01-21T12:54:18.004Z,94244.94
2023-01-21T12:56:52.258Z,94240.41
2023-01-21T12:59:29.523Z,94264.19
2023-01-21T13:02:19.071Z,94235.06
2023-01-21T13:05:04.641Z,94243.88
2023-01-21T13:07:49.906Z,94255.88
2023-01-21T13:10:44.201Z,94259.06
2023-01-21T13:14:03.834Z,94253.69
2023-01-21T13:16:33.085Z,94259.81
2023-01-21T13:22:03.821Z,94275.75
2023-01-21T13:25:04.982Z,94271.22
2023-01-21T13:27:38.850Z,94278.41
2023-01-21T13:30:50.447Z,94282.41
2023-01-21T13:33:51.108Z,94283.44
2023-01-21T13:36:31.021Z,94290.38
2023-01-21T13:39:23.710Z,94275.94
2023-01-21T13:42:15.930Z,94287.19
2023-01-21T13:44:58.191Z,94286.69
2023-01-21T13:47:56.543Z,94287.50
2023-01-21T13:50:38.519Z,94307.78
2023-01-21T13:53:36.068Z,94292.56
2023-01-21T13:56:25.013Z,94275.88
2023-01-21T13:59:01.612Z,94317.03
2023-01-21T14:01:40.865Z,94314.66
2023-01-21T14:04:16.999Z,94327.22
2023-01-21T14:06:58.173Z,94272.38
2023-01-21T14:09:33.151Z,94327.19
2023-01-21T14:12:20.225Z,94347.72
2023-01-21T14:15:09.107Z,94340.50
2023-01-21T14:18:11.891Z,94340.22
2023-01-21T14:20:45.103Z,94336.16
2023-01-21T14:23:14.889Z,94344.41
2023-01-21T14:25:54.064Z,94341.44
2023-01-21T14:28:43.371Z,94339.31
2023-01-21T14:31:12.557Z,94338.50
2023-01-21T14:34:09.614Z,94344.56
2023-01-21T14:36:44.251Z,94342.44
2023-01-21T14:39:34.261Z,94353.81
2023-01-21T14:42:04.363Z,94355.66
2023-01-21T14:45:04.928Z,94354.25
2023-01-21T14:47:31.804Z,94370.22
2023-01-21T14:49:59.957Z,94379.25
2023-01-21T14:52:30.414Z,94394.47
2023-01-21T14:54:58.175Z,94386.38
2023-01-21T14:57:35.412Z,94399.25
2023-01-21T15:00:13.478Z,94400.00
2023-01-21T15:02:44.793Z,94365.56
2023-01-21T15:05:26.368Z,94359.66
2023-01-21T15:08:12.497Z,94368.53
2023-01-21T15:10:40.753Z,94352.94
2023-01-21T15:13:28.848Z,94392.78
2023-01-21T15:16:11.074Z,94399.41
2023-01-21T15:18:45.529Z,94379.53
2023-01-21T15:21:50.513Z,94407.31
2023-01-21T15:24:26.816Z,94330.81
2023-01-21T15:27:22.183Z,94379.28
2023-01-21T15:29:58.955Z,94402.44
2023-01-21T15:32:32.316Z,94397.94
2023-01-21T15:35:03.690Z,94337.16
2023-01-21T15:37:37.194Z,94390.94
2023-01-21T15:40:19.734Z,94398.03
2023-01-21T15:43:05.745Z,94405.47
2023-01-21T15:46:07.103Z,94410.47
2023-01-21T15:49:00.000Z,94419.47
2023-01-21T15:52:04.603Z,94418.84
2023-01-21T15:54:45.652Z,94386.69
2023-01-21T15:57:15.593Z,94410.03
2023-01-21T16:00:28.101Z,94413.72
2023-01-21T16:03:19.348Z,94361.91
2023-01-21T16:05:59.704Z,94405.25
2023-01-21T16:08:42.365Z,94402.22
2023-01-21T16:11:24.726Z,94423.56
2023-01-21T16:14:13.780Z,94430.25
2023-01-21T16:16:56.217Z,94424.44
2023-01-21T16:19:32.201Z,94428.94
2023-01-21T16:22:03.131Z,94404.56
2023-01-21T16:24:32.508Z,94430.31
2023-01-21T16:27:27.537Z,94425.00
2023-01-21T16:29:56.572Z,94426.59
2023-01-21T16:32:24.326Z,94432.75
2023-01-21T16:34:51.379Z,94442.88
2023-01-21T16:37:21.462Z,94439.94
2023-01-21T16:39:48.685Z,94446.88
2023-01-21T16:42:37.713Z,94458.34
2023-01-21T16:45:13.873Z,94459.94
2023-01-21T16:47:41.255Z,94455.75
2023-01-21T16:50:27.162Z,94433.34
2023-01-21T16:52:57.488Z,94448.88
2023-01-21T16:55:27.840Z,94454.50
2023-01-21T16:57:58.442Z,94444.84
2023-01-21T17:00:29.482Z,94447.03
2023-01-21T17:03:00.562Z,94430.13
2023-01-21T17:05:31.810Z,94470.03
2023-01-21T17:08:08.808Z,94474.59
2023-01-21T17:10:39.969Z,94477.59
2023-01-21T17:13:15.479Z,94477.34
2023-01-21T17:15:49.483Z,94478.94
2023-01-21T17:18:22.975Z,94488.53
2023-01-21T17:21:12.834Z,94477.34
2023-01-21T17:23:52.505Z,94491.28
2023-01-21T17:26:21.710Z,94493.19
2023-01-21T17:28:59.820Z,94485.44
2023-01-21T17:31:35.136Z,94483.28
2023-01-21T17:34:02.518Z,94499.06
2023-01-21T17:36:36.137Z,94498.00
2023-01-21T17:39:05.725Z,94481.16
2023-01-21T17:41:37.848Z,94489.53
2023-01-21T17:44:15.592Z,94503.75
2023-01-21T17:46:51.195Z,94483.16
2023-01-21T17:49:23.249Z,94484.25
2023-01-21T17:51:53.551Z,94494.47
2023-01-21T17:54:22.951Z,94464.25
2023-01-21T17:56:54.845Z,94498.19
2023-01-21T17:59:34.598Z,94489.78
2023-01-21T18:02:11.768Z,94519.72
2023-01-21T18:04:39.404Z,94491.81
2023-01-21T18:07:24.198Z,94508.22
2023-01-21T18:09:53.425Z,94504.38
2023-01-21T18:12:21.964Z,94515.94
2023-01-21T18:14:49.343Z,94513.75
2023-01-21T18:17:22.683Z,94526.44
2023-01-21T18:19:49.949Z,94528.78
2023-01-21T18:22:26.584Z,94502.22
2023-01-21T18:24:53.746Z,94501.94
2023-01-21T18:27:25.694Z,94460.59
2023-01-21T18:29:53.901Z,94472.84
2023-01-21T18:32:20.924Z,94472.78
2023-01-21T18:34:47.827Z,94524.78
2023-01-21T18:37:17.403Z,94537.59
2023-01-21T18:39:44.598Z,94541.31
2023-01-21T18:42:17.505Z,94523.28
2023-01-21T18:44:45.313Z,94529.19
2023-01-21T18:47:20.907Z,94531.44
2023-01-21T18:49:50.978Z,94540.44
2023-01-21T18:52:19.274Z,94536.41
2023-01-21T18:54:46.572Z,94547.97
2023-01-21T18:57:22.564Z,94530.13
2023-01-21T18:59:49.833Z,94557.69
2023-01-21T19:02:19.458Z,94567.84
2023-01-21T19:04:46.836Z,94572.66
2023-01-21T19:07:19.759Z,94560.25
2023-01-21T19:09:49.127Z,94555.94
2023-01-21T19:12:21.131Z,94587.19
2023-01-21T19:14:49.221Z,94571.38
2023-01-21T19:17:23.034Z,94569.25
2023-01-21T19:19:50.133Z,94590.44
2023-01-21T19:22:17.077Z,94573.69
2023-01-21T19:24:44.549Z,94581.28
2023-01-21T19:27:21.839Z,94574.09
2023-01-21T19:29:48.807Z,94569.03
2023-01-21T19:32:16.149Z,94585.03
2023-01-21T19:34:43.497Z,94577.31
2023-01-21T19:37:23.389Z,94588.59
2023-01-21T19:39:50.124Z,94603.31
2023-01-21T19:42:18.198Z,94602.53
2023-01-21T19:44:45.185Z,94583.03
2023-01-21T19:47:20.106Z,94561.38
2023-01-21T19:49:48.030Z,94576.41
2023-01-21T19:52:15.470Z,94588.16
2023-01-21T19:54:42.564Z,94591.09
2023-01-21T19:57:16.999Z,94607.69
2023-01-21T19:59:44.914Z,94578.44
2023-01-21T20:02:13.026Z,94610.66
2023-01-21T20:04:40.247Z,94596.47
2023-01-21T20:07:07.429Z,94599.78
2023-01-21T20:09:34.583Z,94579.09
2023-01-21T20:12:03.512Z,94608.56
2023-01-21T20:14:33.435Z,94612.28
2023-01-21T20:17:00.633Z,94618.16
2023-01-21T20:19:27.746Z,94630.41
2023-01-21T20:22:01.721Z,94629.31
2023-01-21T20:24:30.584Z,94625.19
2023-01-21T20:26:59.109Z,94624.94
2023-01-21T20:29:27.106Z,94622.13
2023-01-21T20:31:54.496Z,94606.25
2023-01-21T20:34:21.638Z,94616.16
2023-01-21T20:36:50.917Z,94618.34
2023-01-21T20:39:18.261Z,94620.94
2023-01-21T20:41:45.465Z,94616.97
2023-01-21T20:44:12.528Z,94620.59
2023-01-21T20:46:39.685Z,94631.09
2023-01-21T20:49:06.756Z,94621.31
2023-01-21T20:51:33.750Z,94647.06
2023-01-21T20:54:00.623Z,94644.78
2023-01-21T20:56:30.535Z,94638.00
2023-01-21T21:01:43.108Z,94668.13
2023-01-21T21:04:10.057Z,94652.81
2023-01-21T21:06:37.248Z,94659.19
2023-01-21T21:09:04.131Z,94669.69
2023-01-21T21:11:31.049Z,94673.63
2023-01-21T21:13:58.679Z,94682.41
2023-01-21T21:16:31.654Z,94672.13
2023-01-21T21:19:00.676Z,94678.59
2023-01-21T21:21:27.828Z,94691.44
2023-01-21T21:23:54.749Z,94694.66
2023-01-21T21:26:24.407Z,94712.31
2023-01-21T21:28:55.239Z,94672.28
2023-01-21T21:31:25.109Z,94639.88
2023-01-21T21:33:53.914Z,94656.16
2023-01-21T21:36:24.228Z,94707.72
2023-01-21T21:38:56.096Z,94684.09
2023-01-21T21:41:44.402Z,94692.59
2023-01-21T21:44:12.536Z,94702.53
2023-01-21T21:46:58.365Z,94699.00
2023-01-21T21:49:25.678Z,94701.41
2023-01-21T21:51:52.697Z,94687.72
2023-01-21T21:54:19.931Z,94701.81
2023-01-21T21:56:48.400Z,94695.72
2023-01-21T21:59:15.779Z,94687.41
2023-01-21T22:01:44.105Z,94689.66
2023-01-21T22:04:12.041Z,94702.13
2023-01-21T22:06:39.402Z,94700.97
2023-01-21T22:09:07.261Z,94689.44
2023-01-21T22:11:34.918Z,94700.06
2023-01-21T22:14:04.359Z,94693.63
2023-01-21T22:16:31.933Z,94692.47
2023-01-21T22:19:00.333Z,94701.59
2023-01-21T22:21:33.360Z,94681.31
2023-01-21T22:24:02.732Z,94712.94
2023-01-21T22:26:30.575Z,94708.31
2023-01-21T22:28:57.758Z,94703.81
2023-01-21T22:31:27.082Z,94717.69
2023-01-21T22:33:54.323Z,94734.75
2023-01-21T22:36:23.695Z,94697.81
2023-01-21T22:38:52.214Z,94725.53
2023-01-21T22:41:21.475Z,94730.97
2023-01-21T22:43:49.818Z,94708.13
2023-01-21T22:46:23.287Z,94730.47
2023-01-21T22:48:50.932Z,94754.25
2023-01-21T22:51:19.606Z,94755.31
2023-01-21T22:53:47.695Z,94751.38
2023-01-21T22:56:17.061Z,94735.09
2023-01-21T22:58:44.803Z,94736.72
2023-01-21T23:01:31.504Z,94722.19
2023-01-21T23:04:00.120Z,94735.31
2023-01-21T23:06:27.619Z,94740.53
2023-01-21T23:08:55.018Z,94740.06
2023-01-21T23:11:22.215Z,94751.16
2023-01-21T23:13:49.939Z,94752.88
2023-01-21T23:16:19.152Z,94745.72
2023-01-21T23:18:46.628Z,94733.38
2023-01-21T23:21:17.057Z,94750.91
2023-01-21T23:23:44.301Z,94718.38
2023-01-21T23:26:11.917Z,94739.94
2023-01-21T23:28:39.042Z,94763.38
2023-01-21T23:31:08.405Z,94757.03
2023-01-21T23:33:35.622Z,94758.75
2023-01-21T23:36:02.583Z,94738.44
2023-01-21T23:38:29.804Z,94767.75
2023-01-21T23:40:57.292Z,94773.63
2023-01-21T23:43:26.649Z,94768.56
2023-01-21T23:45:54.722Z,94724.13
2023-01-21T23:48:22.711Z,94766.72
2023-01-21T23:50:50.347Z,94771.78
2023-01-21T23:53:17.853Z,94776.28
2023-01-21T23:55:44.943Z,94784.38
2023-01-21T23:58:12.144Z,94781.72
